createdAt,value
2022-12-05T06:02:50.891Z,82.38
2022-12-05T06:07:53.662Z,72.13
2022-12-05T06:12:57.387Z,72.65
2022-12-05T06:17:59.631Z,73.55
2022-12-05T06:23:01.855Z,79.60
2022-12-05T06:28:04.118Z,71.65
2022-12-05T06:33:06.535Z,71.68
2022-12-05T06:38:09.556Z,67.38
2022-12-05T06:43:12.072Z,71.45
2022-12-05T06:48:14.544Z,69.72
2022-12-05T06:53:17.136Z,64.63
2022-12-05T06:58:19.350Z,66.57
2022-12-05T07:03:21.670Z,64.43
2022-12-05T07:08:23.895Z,62.75
2022-12-05T07:13:26.352Z,48.15
2022-12-05T07:18:29.048Z,49.22
2022-12-05T07:23:31.363Z,45.17
2022-12-05T07:28:34.501Z,53.90
2022-12-05T07:33:37.281Z,53.35
2022-12-05T07:38:40.840Z,52.35
2022-12-05T07:43:43.117Z,53.50
2022-12-05T07:48:45.789Z,50.78
2022-12-05T07:53:48.926Z,48.75
2022-12-05T07:58:51.212Z,51.63
2022-12-05T08:03:55.445Z,45.53
2022-12-05T08:08:58.066Z,43.63
2022-12-05T08:14:00.303Z,45.65
2022-12-05T08:19:05.763Z,45.08
2022-12-05T08:24:08.436Z,48.22
2022-12-05T08:29:13.681Z,43.97
2022-12-05T08:34:20.083Z,40.40
2022-12-05T08:39:22.467Z,40.25
2022-12-05T08:44:25.161Z,40.70
2022-12-05T08:49:28.202Z,37.63
2022-12-05T08:54:30.395Z,40.92
2022-12-05T08:59:32.684Z,35.38
2022-12-05T09:04:34.950Z,37.40
2022-12-05T09:09:37.401Z,38.03
2022-12-05T09:14:39.610Z,41.05
2022-12-05T09:19:41.812Z,40.20
2022-12-05T09:24:44.326Z,38.53
2022-12-05T09:29:46.623Z,42.00
2022-12-05T09:34:48.906Z,39.35
2022-12-05T09:39:51.131Z,45.35
2022-12-05T09:45:05.925Z,44.08
2022-12-05T09:50:28.525Z,44.88
2022-12-05T09:55:48.339Z,47.50
2022-12-05T10:00:54.947Z,49.10
2022-12-05T10:06:12.763Z,44.13
2022-12-05T10:11:26.641Z,46.47
2022-12-05T10:16:37.615Z,50.17
2022-12-05T10:21:56.764Z,47.20
2022-12-05T10:27:08.633Z,48.83
2022-12-05T10:32:17.029Z,50.08
2022-12-05T10:37:23.411Z,53.85
2022-12-05T10:42:30.163Z,51.97
2022-12-05T10:47:33.304Z,51.55
2022-12-05T10:52:35.658Z,57.58
2022-12-05T10:57:37.913Z,55.58
2022-12-05T11:02:41.518Z,52.45
2022-12-05T11:07:43.832Z,55.08
2022-12-05T11:12:46.243Z,52.28
2022-12-05T11:17:49.715Z,49.53
2022-12-05T11:22:55.070Z,45.15
2022-12-05T11:28:01.424Z,45.53
2022-12-05T11:33:22.024Z,48.33
2022-12-05T11:38:29.330Z,51.45
2022-12-05T11:43:46.742Z,48.67
2022-12-05T11:48:57.795Z,51.55
2022-12-05T11:54:30.602Z,47.28
2022-12-05T12:00:02.407Z,51.20
2022-12-05T12:05:30.385Z,56.28
2022-12-05T12:10:54.237Z,55.88
2022-12-05T12:16:20.820Z,56.95
2022-12-05T12:21:23.159Z,59.53
2022-12-05T12:26:30.189Z,54.03
2022-12-05T12:31:50.842Z,54.65
2022-12-05T12:37:03.480Z,62.10
2022-12-05T12:42:08.687Z,55.78
2022-12-05T12:47:29.083Z,60.20
2022-12-05T12:53:00.796Z,62.30
2022-12-05T12:58:18.249Z,64.30
2022-12-05T13:03:25.691Z,58.50
2022-12-05T13:09:13.013Z,59.15
2022-12-05T13:14:20.881Z,59.35
2022-12-05T13:19:29.142Z,54.17
2022-12-05T13:24:31.854Z,53.15
2022-12-05T13:29:39.989Z,54.38
2022-12-05T13:34:49.096Z,55.00
2022-12-05T13:40:12.200Z,58.25
2022-12-05T13:45:20.374Z,54.35
2022-12-05T13:50:31.604Z,58.30
2022-12-05T13:55:37.801Z,55.80
2022-12-05T14:00:40.573Z,59.53
2022-12-05T14:05:51.559Z,53.92
2022-12-05T14:10:53.741Z,54.05
2022-12-05T14:16:24.856Z,62.30
2022-12-05T14:21:51.155Z,54.97
2022-12-05T14:27:22.624Z,60.67
2022-12-05T14:37:38.492Z,59.80
2022-12-05T14:43:03.347Z,69.55
2022-12-05T14:48:14.620Z,60.97
2022-12-05T14:53:26.086Z,60.08
2022-12-05T14:58:41.831Z,64.32
2022-12-05T15:04:07.787Z,73.15
2022-12-05T15:09:36.902Z,67.07
2022-12-05T15:15:23.385Z,68.00
2022-12-05T15:20:25.702Z,64.60
2022-12-05T15:25:32.854Z,71.95
2022-12-05T15:30:39.716Z,75.93
2022-12-05T15:35:48.362Z,70.10
2022-12-05T15:40:50.686Z,64.70
2022-12-05T15:46:08.181Z,76.25
2022-12-05T15:51:10.621Z,78.32
2022-12-05T15:56:18.113Z,64.72
2022-12-05T16:01:25.242Z,67.05
2022-12-05T16:06:43.427Z,66.32
2022-12-05T16:12:00.263Z,69.85
2022-12-05T16:17:04.601Z,61.15
2022-12-05T16:22:12.663Z,69.18
2022-12-05T16:27:25.293Z,68.90
2022-12-05T16:32:27.563Z,66.28
2022-12-05T16:37:30.378Z,60.67
2022-12-05T16:42:32.695Z,64.75
2022-12-05T16:47:40.816Z,64.28
2022-12-05T16:52:43.128Z,65.57
2022-12-05T16:57:45.317Z,70.60
2022-12-05T17:02:47.525Z,67.00
2022-12-05T17:07:49.851Z,67.97
2022-12-05T17:12:52.103Z,74.60
2022-12-05T17:17:54.784Z,75.18
2022-12-05T17:22:57.028Z,77.32
2022-12-05T17:27:59.269Z,79.70
2022-12-05T17:33:01.634Z,75.32
2022-12-05T17:38:04.579Z,89.68
2022-12-05T17:43:07.105Z,84.10
2022-12-05T17:48:13.474Z,98.80
2022-12-05T17:53:18.712Z,85.63
2022-12-05T17:58:21.069Z,83.65
2022-12-05T18:03:23.451Z,76.22
2022-12-05T18:08:25.734Z,70.90
2022-12-05T18:13:37.400Z,91.97
2022-12-05T18:18:39.806Z,83.35
2022-12-05T18:23:42.163Z,80.55
2022-12-05T18:28:46.888Z,88.47
2022-12-05T18:33:49.103Z,86.13
2022-12-05T18:38:54.491Z,85.68
2022-12-05T18:43:56.800Z,72.80
2022-12-05T18:49:03.356Z,80.38
2022-12-05T18:54:06.209Z,81.50
2022-12-05T18:59:19.550Z,88.47
2022-12-05T19:04:21.932Z,94.93
2022-12-05T19:09:29.952Z,88.57
2022-12-05T19:14:33.220Z,93.38
2022-12-05T19:19:37.297Z,98.55
2022-12-05T19:24:39.573Z,85.43
2022-12-05T19:29:41.850Z,118.75
2022-12-05T19:34:46.532Z,94.57
2022-12-05T19:39:50.130Z,103.18
2022-12-05T19:44:52.417Z,85.53
2022-12-05T19:49:54.692Z,90.90
2022-12-05T19:54:57.105Z,145.07
2022-12-05T20:00:00.192Z,111.95
2022-12-05T20:05:04.060Z,102.05
2022-12-05T20:10:06.690Z,114.03
2022-12-05T20:15:15.750Z,97.85
2022-12-05T20:20:19.009Z,97.47
2022-12-05T20:25:21.191Z,143.45
2022-12-05T20:30:28.244Z,99.68
2022-12-05T20:35:38.133Z,94.90
2022-12-05T20:40:40.389Z,88.30
2022-12-05T20:45:42.651Z,99.43
2022-12-05T20:50:44.904Z,108.30
2022-12-05T20:55:47.298Z,121.15
2022-12-05T21:00:49.503Z,109.53
2022-12-05T21:05:52.088Z,76.95
2022-12-05T21:10:54.503Z,77.70
2022-12-05T21:15:57.503Z,100.72
2022-12-05T21:21:06.696Z,90.45
2022-12-05T21:26:14.076Z,88.80
2022-12-05T21:31:26.876Z,135.90
2022-12-05T21:36:31.694Z,114.63
2022-12-05T21:41:34.702Z,89.32
2022-12-05T21:46:37.290Z,89.15
2022-12-05T21:51:39.955Z,98.50
2022-12-05T21:56:43.590Z,93.47
2022-12-05T22:01:46.645Z,93.72
2022-12-05T22:06:48.915Z,113.82
2022-12-05T22:11:51.175Z,128.98
2022-12-05T22:16:53.470Z,104.93
2022-12-05T22:21:55.663Z,104.05
2022-12-05T22:26:57.949Z,89.90
2022-12-05T22:32:00.277Z,88.43
2022-12-05T22:37:02.509Z,93.32
2022-12-05T22:42:04.805Z,106.53
